CheckWX is a tool to help pilots better visualize weather data.  It is not intended as a substitute for an official pre-flight weather briefing.

05:12:16 UTC

MMHO TAF
General Ignacio P. Garcia International Airport
Hermosillo, Mexico
TAF MMHO 231651Z 2318/2418 36008KT P6SM SKC BECMG 2320/2321 35012KT FM240200 32005KT P6SM SKC BECMG 2405/2406 00000KT FM241200 02005KT P6SM SKC

Feb-23@
18:00 UTC

Feb-23 @ 18:00 UTC

Feb-23@
20:00 UTC

Feb-23 @ 20:00 UTC

TAF MMHO 231651Z 2318/2418 36008KT P6SM SKC

Expired

Wind
  • 360° at 8 KTS
Cloud Levels
  • Clear skies

Feb-23@
20:00 UTC

Feb-23 @ 20:00 UTC

Feb-24@
02:00 UTC

Feb-24 @ 02:00 UTC

BECMG 2320/2321 35012KT

Expired

Wind
  • 350° at 12 KTS
Cloud Levels
  • Clear skies

Feb-24@
02:00 UTC

Feb-24 @ 02:00 UTC

Feb-24@
05:00 UTC

Feb-24 @ 05:00 UTC

FM240200 32005KT P6SM SKC

Expired

Wind
  • 320° at 5 KTS
Cloud Levels
  • Clear skies

Feb-24@
05:00 UTC

Feb-24 @ 05:00 UTC

Feb-24@
12:00 UTC

Feb-24 @ 12:00 UTC

BECMG 2405/2406 00000KT

Becoming

Becoming Conditions expected by Sun, Feb 24, 2019 @ 06:00 UTC

Cloud Levels
  • Clear skies

Feb-24@
12:00 UTC

Feb-24 @ 12:00 UTC

Feb-24@
18:00 UTC

Feb-24 @ 18:00 UTC

FM241200 02005KT P6SM SKC

From

From Standard forecast or significant change

Wind
  • 020° at 5 KTS
Cloud Levels
  • Clear skies